Time;durP1;ratioP1;P1;durP2;ratioP2;P2;SDS_P1;SDS_P2;PMS_P1;PMS_P2;Temp;Humidity;BMP_temperature;BMP_pressure;BME280_temperature;BME280_humidity;BME280_pressure;Samples;Min_cycle;Max_cycle;Signal;HPM_P1;HPM_P2
2023/10/15 00:00:21;;;;;;;11.33;2.20;;;7.80;99.90;;;;;;4983870;28;20196;-66
2023/10/15 00:02:53;;;;;;;8.43;2.37;;;7.80;99.90;;;;;;4978470;28;20235;-66
2023/10/15 00:05:27;;;;;;;3.67;1.73;;;8.00;99.90;;;;;;4999406;28;20193;-66
2023/10/15 00:07:57;;;;;;;9.53;2.10;;;7.90;99.90;;;;;;4974216;28;20204;-66
2023/10/15 00:10:26;;;;;;;5.63;1.97;;;7.80;99.90;;;;;;5002369;28;20750;-66
2023/10/15 00:12:55;;;;;;;3.70;2.00;;;7.80;99.90;;;;;;5001582;28;20220;-66
2023/10/15 00:15:24;;;;;;;9.80;2.20;;;7.80;99.90;;;;;;4985611;28;20526;-65
2023/10/15 00:17:53;;;;;;;5.90;2.10;;;7.80;99.90;;;;;;4985243;28;20201;-64
2023/10/15 00:20:31;;;;;;;5.70;2.70;;;7.80;99.90;;;;;;4989384;28;20243;-66
2023/10/15 00:23:05;;;;;;;5.60;2.07;;;8.00;99.90;;;;;;4987452;28;20726;-67
2023/10/15 00:25:38;;;;;;;5.23;2.43;;;8.20;99.90;;;;;;4983505;28;20204;-66
2023/10/15 00:28:09;;;;;;;9.00;2.50;;;8.30;99.90;;;;;;5002582;28;20580;-66
2023/10/15 00:30:39;;;;;;;5.83;2.00;;;8.30;99.90;;;;;;4996834;28;20200;-65
2023/10/15 00:33:14;;;;;;;9.77;4.50;;;8.10;99.90;;;;;;4986260;28;20217;-67
2023/10/15 00:35:44;;;;;;;9.27;2.90;;;8.20;99.90;;;;;;5007759;28;20185;-68
2023/10/15 00:38:19;;;;;;;9.63;5.80;;;8.20;99.90;;;;;;4991038;28;20588;-68
2023/10/15 00:40:51;;;;;;;6.70;3.00;;;8.10;99.90;;;;;;4994265;28;20363;-67
2023/10/15 00:43:22;;;;;;;10.30;3.73;;;7.90;99.90;;;;;;4984626;28;20198;-68
2023/10/15 00:45:51;;;;;;;19.77;6.93;;;7.90;99.90;;;;;;4985967;28;20229;-72
2023/10/15 00:48:24;;;;;;;4.87;3.57;;;8.10;99.90;;;;;;5006479;28;20211;-66
2023/10/15 00:50:53;;;;;;;11.23;4.20;;;8.80;99.90;;;;;;4986907;28;20580;-68
2023/10/15 00:53:24;;;;;;;8.93;4.63;;;8.60;99.90;;;;;;5000858;28;20212;-68
2023/10/15 00:55:54;;;;;;;11.67;5.03;;;8.60;99.90;;;;;;5005850;28;20606;-68
2023/10/15 00:58:30;;;;;;;8.90;3.97;;;8.70;99.90;;;;;;5004539;28;20530;-70
2023/10/15 01:03:56;;;;;;;14.23;6.53;;;8.90;99.90;;;;;;4999311;28;20253;-67
2023/10/15 01:09:10;;;;;;;4.93;2.87;;;9.50;99.90;;;;;;5006398;28;20596;-67
2023/10/15 01:11:44;;;;;;;6.13;3.17;;;9.30;99.90;;;;;;4985757;28;20197;-67
2023/10/15 01:14:11;;;;;;;6.50;3.33;;;8.70;99.90;;;;;;4976423;28;20668;-67
2023/10/15 01:16:40;;;;;;;12.03;3.20;;;9.20;99.90;;;;;;5005124;28;20236;-66
2023/10/15 01:21:57;;;;;;;9.47;4.87;;;9.10;99.90;;;;;;5000507;28;20196;-67
2023/10/15 01:24:25;;;;;;;18.73;7.30;;;9.10;99.90;;;;;;5006242;28;20210;-63
2023/10/15 01:27:00;;;;;;;12.57;5.03;;;9.20;99.90;;;;;;5005842;28;20291;-66
2023/10/15 01:29:28;;;;;;;7.50;2.83;;;9.50;99.90;;;;;;5006105;28;20193;-67
2023/10/15 01:31:58;;;;;;;6.47;2.83;;;9.00;99.90;;;;;;5004390;28;20621;-66
2023/10/15 01:34:26;;;;;;;13.67;3.80;;;8.70;99.90;;;;;;4990336;28;20693;-66
2023/10/15 01:36:59;;;;;;;11.10;6.90;;;8.50;99.90;;;;;;4983678;28;20257;-74
2023/10/15 01:39:38;;;;;;;18.30;8.33;;;8.40;99.90;;;;;;5005454;28;20197;-72
2023/10/15 01:42:07;;;;;;;8.87;3.27;;;8.70;99.90;;;;;;5002348;28;20669;-74
2023/10/15 01:44:47;;;;;;;13.30;5.20;;;9.00;99.90;;;;;;4999073;28;20201;-64
2023/10/15 01:47:16;;;;;;;16.77;7.20;;;9.30;99.90;;;;;;5003074;28;20193;-70
2023/10/15 01:49:46;;;;;;;23.77;7.30;;;9.90;99.90;;;;;;5003367;28;20688;-66
2023/10/15 01:52:21;;;;;;;23.53;7.73;;;10.50;99.90;;;;;;5003513;28;20196;-67
2023/10/15 01:54:49;;;;;;;11.20;5.77;;;10.80;99.90;;;;;;5003639;28;20679;-69
2023/10/15 01:57:16;;;;;;;15.87;6.07;;;10.90;99.90;;;;;;4984976;28;20201;-69
2023/10/15 01:59:46;;;;;;;11.07;5.73;;;11.00;99.90;;;;;;4990902;28;20200;-68
2023/10/15 02:06:19;;;;;;;8.33;4.43;;;11.20;99.90;;;;;;5003295;28;20240;-68
2023/10/15 02:08:46;;;;;;;15.03;5.87;;;11.10;99.90;;;;;;4984942;28;20814;-68
2023/10/15 02:11:21;;;;;;;10.47;4.40;;;11.40;99.90;;;;;;4993763;28;20204;-69
2023/10/15 02:13:49;;;;;;;11.77;4.30;;;11.50;99.90;;;;;;4989894;28;20243;-68
2023/10/15 02:16:25;;;;;;;6.87;3.13;;;11.80;99.90;;;;;;5002225;28;20225;-71
2023/10/15 02:18:53;;;;;;;7.53;3.93;;;11.70;99.90;;;;;;5003122;28;20203;-68
2023/10/15 02:21:20;;;;;;;7.33;3.10;;;11.80;99.90;;;;;;4983594;28;20628;-72
2023/10/15 02:23:53;;;;;;;6.57;3.20;;;11.70;99.90;;;;;;4997262;28;20775;-65
2023/10/15 02:26:30;;;;;;;9.60;3.60;;;11.30;99.90;;;;;;4987241;28;20200;-67
2023/10/15 02:29:06;;;;;;;7.40;3.10;;;11.50;99.90;;;;;;5003187;28;20201;-65
2023/10/15 02:31:46;;;;;;;7.40;3.00;;;11.70;99.90;;;;;;4989164;28;20454;-65
2023/10/15 02:34:16;;;;;;;12.00;3.30;;;11.60;99.90;;;;;;4999536;28;20197;-65
2023/10/15 02:36:43;;;;;;;4.90;2.20;;;11.50;99.90;;;;;;4992708;28;20197;-66
2023/10/15 02:39:10;;;;;;;3.53;2.37;;;11.50;99.90;;;;;;4984371;28;20508;-66
2023/10/15 02:41:41;;;;;;;3.13;2.13;;;11.50;99.90;;;;;;5005440;28;20598;-65
2023/10/15 02:44:15;;;;;;;6.00;2.60;;;11.60;99.90;;;;;;4989196;28;20205;-67
2023/10/15 02:46:49;;;;;;;5.63;2.33;;;11.60;99.90;;;;;;4984983;28;20299;-64
2023/10/15 02:49:17;;;;;;;6.87;2.57;;;11.70;99.90;;;;;;5000754;28;20661;-67
2023/10/15 02:51:48;;;;;;;4.00;2.23;;;11.80;99.90;;;;;;4987775;28;20196;-68
2023/10/15 02:54:28;;;;;;;5.33;2.57;;;11.60;99.90;;;;;;4999933;28;20476;-66
2023/10/15 02:56:56;;;;;;;5.77;2.50;;;11.50;99.90;;;;;;5006036;28;20529;-66
2023/10/15 02:59:29;;;;;;;3.60;2.00;;;11.40;99.90;;;;;;4989810;28;20251;-65
2023/10/15 03:01:56;;;;;;;6.20;2.53;;;11.30;99.90;;;;;;4986386;28;20197;-66
2023/10/15 03:04:32;;;;;;;9.27;2.70;;;11.20;99.90;;;;;;5007629;28;20651;-66
2023/10/15 03:07:19;;;;;;;5.60;2.73;;;11.10;99.90;;;;;;5004692;28;20201;-66
2023/10/15 03:09:51;;;;;;;6.30;3.23;;;10.70;99.90;;;;;;5001658;28;20189;-66
2023/10/15 03:12:18;;;;;;;4.03;2.83;;;11.00;99.90;;;;;;5002913;28;20412;-67
2023/10/15 03:14:46;;;;;;;4.63;2.10;;;10.20;99.90;;;;;;4996684;28;20350;-66
2023/10/15 03:17:14;;;;;;;6.13;2.57;;;9.80;99.90;;;;;;4966937;28;20230;-66
2023/10/15 03:19:42;;;;;;;3.27;2.53;;;10.00;99.90;;;;;;4981479;28;20182;-66
2023/10/15 03:22:12;;;;;;;3.80;2.17;;;9.80;99.90;;;;;;4983567;28;20244;-67
2023/10/15 03:24:43;;;;;;;5.07;2.93;;;9.50;99.90;;;;;;4964265;28;20202;-67
2023/10/15 03:27:16;;;;;;;8.20;2.47;;;9.40;99.90;;;;;;4960986;28;20210;-65
2023/10/15 03:29:43;;;;;;;4.60;3.07;;;9.50;99.90;;;;;;4964914;28;20276;-64
2023/10/15 03:32:12;;;;;;;6.87;2.10;;;9.50;99.90;;;;;;4977198;28;20285;-66
2023/10/15 03:34:45;;;;;;;4.20;2.10;;;9.30;99.90;;;;;;4962792;28;20276;-66
2023/10/15 03:37:22;;;;;;;6.80;2.77;;;9.80;99.90;;;;;;4958524;28;20566;-67
2023/10/15 03:39:55;;;;;;;3.50;1.90;;;9.40;99.90;;;;;;4963608;28;20205;-66
2023/10/15 03:42:28;;;;;;;1.87;1.73;;;9.60;99.90;;;;;;4968913;28;20209;-67
2023/10/15 03:45:02;;;;;;;5.07;1.90;;;10.30;99.90;;;;;;4958286;28;20722;-67
2023/10/15 03:47:29;;;;;;;6.57;3.17;;;10.50;99.90;;;;;;4961462;28;20257;-67
2023/10/15 03:49:56;;;;;;;5.37;2.27;;;10.20;99.90;;;;;;4958904;28;20720;-68
2023/10/15 03:52:26;;;;;;;5.60;2.63;;;9.90;99.90;;;;;;4959729;28;20713;-68
2023/10/15 03:54:55;;;;;;;4.77;1.70;;;9.90;99.90;;;;;;4947149;28;20614;-66
2023/10/15 03:57:23;;;;;;;1.47;1.33;;;10.20;99.90;;;;;;4984581;28;20194;-67
2023/10/15 03:59:52;;;;;;;1.40;1.30;;;10.50;99.90;;;;;;4962902;28;20662;-64
2023/10/15 04:05:14;;;;;;;2.23;1.80;;;10.10;99.90;;;;;;4949572;28;20214;-68
2023/10/15 04:07:48;;;;;;;5.47;1.93;;;9.40;99.90;;;;;;4983256;28;20210;-66
2023/10/15 04:10:23;;;;;;;5.77;2.60;;;9.00;99.90;;;;;;4960158;28;20191;-67
2023/10/15 04:12:51;;;;;;;2.30;1.57;;;8.70;99.90;;;;;;4962237;28;20213;-71
2023/10/15 04:15:18;;;;;;;3.63;2.27;;;8.90;99.90;;;;;;4969146;28;20294;-69
2023/10/15 04:17:48;;;;;;;3.87;2.30;;;9.30;99.90;;;;;;5007801;28;20769;-68
2023/10/15 04:20:24;;;;;;;2.17;1.97;;;9.40;99.90;;;;;;5002827;28;20197;-68
2023/10/15 04:22:53;;;;;;;3.67;2.67;;;9.20;99.90;;;;;;5000646;28;20188;-66
2023/10/15 04:25:24;;;;;;;4.93;3.00;;;9.10;99.90;;;;;;5004322;28;20725;-67
2023/10/15 04:27:53;;;;;;;6.33;2.80;;;8.90;99.90;;;;;;5003722;28;20703;-66
2023/10/15 04:30:22;;;;;;;10.57;2.90;;;9.50;99.90;;;;;;4987192;28;20559;-66
2023/10/15 04:32:49;;;;;;;6.60;3.07;;;9.80;99.90;;;;;;4987535;28;20209;-66
2023/10/15 04:35:18;;;;;;;7.73;2.70;;;10.10;99.90;;;;;;4990946;28;20307;-66
2023/10/15 04:37:48;;;;;;;5.63;2.73;;;9.70;99.90;;;;;;5008970;28;20709;-69
2023/10/15 04:40:22;;;;;;;8.80;3.47;;;9.90;99.90;;;;;;5005885;28;20197;-68
2023/10/15 04:42:50;;;;;;;5.07;2.10;;;9.90;99.90;;;;;;5004830;28;20209;-67
2023/10/15 04:45:35;;;;;;;9.70;3.63;;;10.50;99.90;;;;;;5006082;28;20217;-66
2023/10/15 04:48:07;;;;;;;7.07;2.50;;;10.20;99.90;;;;;;4989447;28;20684;-68
2023/10/15 04:50:43;;;;;;;4.67;2.37;;;10.40;99.90;;;;;;5004477;28;20197;-67
2023/10/15 04:53:23;;;;;;;5.27;2.30;;;10.00;99.90;;;;;;5002252;28;20502;-67
2023/10/15 04:55:52;;;;;;;8.30;3.13;;;10.00;99.90;;;;;;4991916;28;20213;-67
2023/10/15 04:58:20;;;;;;;4.27;2.00;;;10.30;99.90;;;;;;4995340;28;20195;-69
2023/10/15 05:00:48;;;;;;;4.33;2.30;;;10.80;99.90;;;;;;5008237;28;20571;-67
2023/10/15 05:03:16;;;;;;;8.10;2.50;;;11.20;99.90;;;;;;5010175;28;20276;-69
2023/10/15 05:05:45;;;;;;;1.87;1.77;;;11.30;99.90;;;;;;4986736;28;20216;-68
2023/10/15 05:08:13;;;;;;;3.53;2.60;;;11.20;99.90;;;;;;5005558;28;20251;-69
2023/10/15 05:10:49;;;;;;;7.23;2.47;;;11.40;99.90;;;;;;5000105;28;20198;-69
2023/10/15 05:13:18;;;;;;;2.40;1.80;;;11.60;99.90;;;;;;5003699;28;20197;-77
2023/10/15 05:15:49;;;;;;;5.63;2.20;;;11.40;99.90;;;;;;5001465;28;20758;-68
2023/10/15 05:18:20;;;;;;;7.77;2.27;;;11.50;99.90;;;;;;4970174;28;20568;-68
2023/10/15 05:20:49;;;;;;;7.23;2.87;;;11.50;99.90;;;;;;4990551;28;20193;-68
2023/10/15 05:23:18;;;;;;;6.30;2.87;;;10.00;99.90;;;;;;5000924;28;20661;-68
2023/10/15 05:25:45;;;;;;;7.20;3.20;;;9.90;99.90;;;;;;4976313;28;20231;-68
2023/10/15 05:28:14;;;;;;;10.17;3.60;;;9.60;99.90;;;;;;5002042;28;20193;-65
2023/10/15 05:30:42;;;;;;;7.23;2.80;;;9.20;99.90;;;;;;5004289;28;20251;-66
2023/10/15 05:33:09;;;;;;;5.77;3.63;;;9.00;99.90;;;;;;5002745;28;20268;-64
2023/10/15 05:35:40;;;;;;;2.40;2.17;;;9.00;99.90;;;;;;5004214;28;20289;-64
2023/10/15 05:38:10;;;;;;;7.60;3.13;;;8.90;99.90;;;;;;5005692;28;20196;-67
2023/10/15 05:40:38;;;;;;;10.20;3.60;;;9.10;99.90;;;;;;4997251;28;20203;-66
2023/10/15 05:43:05;;;;;;;3.07;2.77;;;9.20;99.90;;;;;;5004312;28;20203;-68
2023/10/15 05:45:32;;;;;;;5.93;3.27;;;9.20;99.90;;;;;;4987976;28;20227;-67
2023/10/15 05:48:00;;;;;;;3.57;2.70;;;9.10;99.90;;;;;;5006194;28;20320;-64
2023/10/15 05:50:28;;;;;;;6.27;2.83;;;9.10;99.90;;;;;;4986676;28;20198;-64
2023/10/15 05:52:55;;;;;;;6.23;3.00;;;9.20;99.90;;;;;;5004951;28;20564;-64
2023/10/15 05:55:22;;;;;;;8.10;3.00;;;9.30;99.90;;;;;;4986617;28;20758;-69
2023/10/15 05:57:49;;;;;;;6.87;2.87;;;9.10;99.90;;;;;;5004421;28;20201;-68
2023/10/15 06:00:19;;;;;;;6.63;3.00;;;9.10;99.90;;;;;;5004374;28;20196;-68
2023/10/15 06:02:48;;;;;;;7.87;3.03;;;8.90;99.90;;;;;;4986074;28;20284;-67
2023/10/15 06:05:15;;;;;;;4.33;2.87;;;9.00;99.90;;;;;;4984188;28;20683;-69
2023/10/15 06:07:45;;;;;;;7.27;3.50;;;8.90;99.90;;;;;;4999740;28;20193;-65
2023/10/15 06:10:13;;;;;;;8.20;3.20;;;8.70;99.90;;;;;;5003216;28;20287;-68
2023/10/15 06:12:40;;;;;;;6.30;3.80;;;8.80;99.90;;;;;;5003514;28;20731;-65
2023/10/15 06:15:09;;;;;;;3.73;3.20;;;8.80;99.90;;;;;;4999010;28;20201;-65
2023/10/15 06:17:36;;;;;;;10.90;3.57;;;9.20;99.90;;;;;;5002995;28;20276;-67
2023/10/15 06:20:13;;;;;;;9.40;3.23;;;8.90;99.90;;;;;;5002188;28;20276;-69
2023/10/15 06:22:45;;;;;;;3.70;2.60;;;8.90;99.90;;;;;;5000582;28;20288;-68
2023/10/15 06:25:16;;;;;;;5.30;2.60;;;9.20;99.90;;;;;;5005778;28;20201;-68
2023/10/15 06:27:44;;;;;;;6.70;4.00;;;9.50;99.90;;;;;;5002282;28;20204;-68
2023/10/15 06:30:16;;;;;;;5.00;3.90;;;9.20;99.90;;;;;;5000026;28;20217;-69
2023/10/15 06:32:47;;;;;;;12.23;3.77;;;9.10;99.90;;;;;;5001628;28;20227;-67
2023/10/15 06:35:18;;;;;;;5.73;3.43;;;8.70;99.90;;;;;;4999751;28;20224;-67
2023/10/15 06:37:55;;;;;;;5.40;4.00;;;8.70;99.90;;;;;;5005509;28;20212;-67
2023/10/15 06:40:24;;;;;;;8.77;4.80;;;9.00;99.90;;;;;;4988073;28;20274;-67
2023/10/15 06:42:52;;;;;;;4.60;3.80;;;9.40;99.90;;;;;;5000717;28;20724;-69
2023/10/15 06:45:20;;;;;;;8.47;6.17;;;9.60;99.90;;;;;;5001414;28;20476;-68
2023/10/15 06:47:51;;;;;;;11.37;6.63;;;9.70;99.90;;;;;;5003674;28;20211;-68
2023/10/15 06:50:22;;;;;;;7.73;4.03;;;9.50;99.90;;;;;;5012732;28;20197;-66
2023/10/15 06:52:53;;;;;;;6.10;4.30;;;9.40;99.90;;;;;;5006022;28;20298;-66
2023/10/15 06:55:20;;;;;;;8.60;5.27;;;9.40;99.90;;;;;;5002775;28;20609;-69
2023/10/15 06:57:48;;;;;;;6.97;5.20;;;9.30;99.90;;;;;;4989689;28;20271;-70
2023/10/15 07:00:23;;;;;;;4.03;2.93;;;9.30;99.90;;;;;;4999418;28;20212;-72
2023/10/15 07:02:51;;;;;;;3.77;3.10;;;9.40;99.90;;;;;;4981438;28;20589;-74
2023/10/15 07:05:20;;;;;;;4.50;2.97;;;9.90;99.90;;;;;;4993961;28;20199;-78
2023/10/15 07:07:49;;;;;;;4.43;2.43;;;10.20;99.90;;;;;;5005382;28;20201;-67
2023/10/15 07:10:17;;;;;;;5.03;2.80;;;10.60;99.90;;;;;;4986631;28;20281;-67
2023/10/15 07:12:50;;;;;;;4.63;2.73;;;10.80;99.90;;;;;;5002280;28;21969;-70
2023/10/15 07:15:23;;;;;;;5.10;2.50;;;11.00;99.90;;;;;;4987843;28;20672;-66
2023/10/15 07:17:51;;;;;;;2.90;2.53;;;10.90;99.90;;;;;;4988381;28;20264;-67
2023/10/15 07:20:20;;;;;;;4.43;2.40;;;11.10;99.90;;;;;;5004488;28;20300;-68
2023/10/15 07:22:49;;;;;;;4.00;2.33;;;11.30;99.90;;;;;;5002682;28;20201;-68
2023/10/15 07:25:19;;;;;;;2.27;1.87;;;11.40;99.90;;;;;;4986931;28;20676;-71
2023/10/15 07:27:47;;;;;;;4.03;2.77;;;11.40;99.90;;;;;;4999922;28;21496;-67
2023/10/15 07:30:15;;;;;;;7.10;2.57;;;11.60;99.90;;;;;;5003319;28;20649;-67
2023/10/15 07:32:44;;;;;;;6.77;2.70;;;11.20;99.90;;;;;;4996405;28;20207;-67
2023/10/15 07:35:13;;;;;;;6.43;2.30;;;11.20;99.90;;;;;;4985151;28;20644;-65
2023/10/15 07:37:43;;;;;;;4.77;2.50;;;10.90;99.90;;;;;;4986438;28;20545;-65
2023/10/15 07:40:18;;;;;;;3.57;2.57;;;10.80;99.90;;;;;;5001726;28;20204;-70
2023/10/15 07:42:51;;;;;;;2.90;2.17;;;10.20;99.90;;;;;;5006192;28;20196;-71
2023/10/15 07:45:19;;;;;;;7.47;2.80;;;10.30;99.90;;;;;;4987879;28;20726;-67
2023/10/15 07:47:47;;;;;;;4.23;2.40;;;11.00;99.90;;;;;;5001099;28;20208;-65
2023/10/15 07:50:18;;;;;;;3.53;2.37;;;11.10;99.90;;;;;;5002941;28;20723;-65
2023/10/15 07:52:48;;;;;;;3.13;2.03;;;10.70;99.90;;;;;;4991601;28;20193;-68
2023/10/15 07:55:16;;;;;;;4.43;2.70;;;10.60;99.90;;;;;;5008807;28;20231;-69
2023/10/15 07:57:43;;;;;;;6.37;2.30;;;10.60;99.90;;;;;;4992862;28;20189;-65
2023/10/15 08:00:16;;;;;;;6.40;2.57;;;10.60;99.90;;;;;;4999065;28;20536;-71
2023/10/15 08:02:48;;;;;;;4.03;2.10;;;10.30;99.90;;;;;;5007457;28;20197;-79
2023/10/15 08:05:17;;;;;;;3.07;2.27;;;10.70;99.90;;;;;;5007603;28;20205;-65
2023/10/15 08:07:46;;;;;;;2.60;2.13;;;10.80;99.90;;;;;;5002846;28;20205;-64
2023/10/15 08:10:14;;;;;;;3.40;2.20;;;11.10;99.90;;;;;;4993493;28;20229;-63
2023/10/15 08:12:44;;;;;;;5.30;2.47;;;11.10;99.90;;;;;;4995011;28;20252;-63
2023/10/15 08:15:11;;;;;;;2.93;2.10;;;11.90;99.90;;;;;;4991651;28;20219;-66
2023/10/15 08:17:38;;;;;;;6.37;3.00;;;11.80;99.90;;;;;;5010340;28;20201;-64
2023/10/15 08:20:09;;;;;;;5.23;2.53;;;11.80;99.90;;;;;;5010873;28;20927;-65
2023/10/15 08:22:44;;;;;;;6.73;2.80;;;12.40;99.90;;;;;;4999306;28;20231;-65
2023/10/15 08:25:14;;;;;;;3.03;2.10;;;12.60;99.90;;;;;;4995044;28;20209;-65
2023/10/15 08:27:44;;;;;;;5.03;2.10;;;12.80;99.90;;;;;;5008834;28;20722;-64
2023/10/15 08:30:13;;;;;;;9.13;2.00;;;12.80;99.90;;;;;;5007933;28;20199;-64
2023/10/15 08:32:44;;;;;;;6.53;2.43;;;12.40;99.90;;;;;;5007683;28;20200;-66
2023/10/15 08:35:15;;;;;;;3.40;2.20;;;12.80;99.90;;;;;;4988113;28;20224;-64
2023/10/15 08:37:43;;;;;;;2.60;2.03;;;12.70;99.90;;;;;;5006243;28;20182;-64
2023/10/15 08:40:17;;;;;;;4.20;2.03;;;12.80;99.90;;;;;;5003746;28;20562;-64
2023/10/15 08:43:01;;;;;;;2.30;1.80;;;12.50;99.90;;;;;;4996148;28;20567;-65
2023/10/15 08:45:29;;;;;;;2.97;2.10;;;12.90;99.90;;;;;;4986970;28;20651;-65
2023/10/15 08:48:01;;;;;;;1.87;1.77;;;13.00;99.90;;;;;;5005761;28;20185;-65
2023/10/15 08:50:29;;;;;;;3.50;1.83;;;13.60;99.90;;;;;;4986389;28;20239;-65
2023/10/15 08:52:59;;;;;;;2.88;1.67;;;17.30;99.90;;;;;;5001762;28;20260;-71
2023/10/15 08:55:27;;;;;;;1.80;1.70;;;18.30;99.90;;;;;;5007762;28;20557;-67
2023/10/15 08:57:54;;;;;;;2.70;1.85;;;16.30;99.90;;;;;;4991251;28;20220;-66
2023/10/15 09:00:25;;;;;;;3.60;2.00;;;15.10;99.90;;;;;;5012152;28;20189;-65
2023/10/15 09:03:00;;;;;;;2.90;1.88;;;14.60;99.90;;;;;;4991491;28;20200;-67
2023/10/15 09:05:40;;;;;;;2.85;2.17;;;14.20;99.90;;;;;;4980332;28;20240;-65
2023/10/15 09:08:08;;;;;;;2.45;2.10;;;14.30;99.90;;;;;;5008128;28;20649;-64
2023/10/15 09:10:40;;;;;;;4.40;2.55;;;15.20;99.90;;;;;;4974675;28;20201;-63
2023/10/15 09:13:14;;;;;;;3.22;2.00;;;19.40;99.90;;;;;;4989931;28;20207;-66
2023/10/15 09:15:45;;;;;;;2.85;2.50;;;17.60;99.90;;;;;;5003906;28;20252;-65
2023/10/15 09:18:16;;;;;;;3.42;1.70;;;15.90;99.90;;;;;;5000539;28;20197;-66
2023/10/15 09:20:46;;;;;;;5.97;2.97;;;15.00;99.90;;;;;;5004380;28;20207;-68
2023/10/15 09:23:15;;;;;;;6.30;3.72;;;14.00;99.90;;;;;;5007576;28;20196;-70
2023/10/15 09:25:42;;;;;;;3.67;2.50;;;13.50;99.90;;;;;;5007426;28;20296;-68
2023/10/15 09:28:11;;;;;;;5.83;3.80;;;13.30;99.90;;;;;;4994704;28;20217;-67
2023/10/15 09:30:38;;;;;;;8.17;4.13;;;13.30;99.90;;;;;;4988983;28;20198;-67
2023/10/15 09:33:12;;;;;;;5.40;3.35;;;13.70;99.90;;;;;;4970374;28;20201;-66
2023/10/15 09:35:42;;;;;;;1.77;1.65;;;14.20;99.90;;;;;;5007252;28;20700;-62
2023/10/15 09:38:14;;;;;;;4.05;2.28;;;14.50;99.90;;;;;;5004093;28;20201;-69
2023/10/15 09:40:44;;;;;;;9.70;3.65;;;14.60;99.90;;;;;;4975230;28;20213;-65
2023/10/15 09:43:13;;;;;;;1.70;1.60;;;14.30;99.90;;;;;;5006668;28;20292;-67
2023/10/15 09:45:42;;;;;;;2.88;2.17;;;14.10;99.90;;;;;;5010223;28;20320;-65
2023/10/15 09:48:12;;;;;;;3.95;2.88;;;13.60;99.90;;;;;;4993655;28;20208;-64
2023/10/15 09:50:41;;;;;;;2.90;2.38;;;13.70;99.90;;;;;;4988569;28;22394;-67
2023/10/15 09:53:10;;;;;;;1.77;1.50;;;14.10;99.90;;;;;;4977410;28;20231;-66
2023/10/15 09:55:40;;;;;;;2.22;2.03;;;14.70;99.90;;;;;;4989994;28;20215;-66
2023/10/15 09:58:12;;;;;;;3.80;2.25;;;15.90;99.90;;;;;;5010820;28;20186;-66
2023/10/15 10:03:47;;;;;;;3.50;2.63;;;16.70;99.90;;;;;;5010777;28;20673;-69
2023/10/15 10:06:51;;;;;;;2.53;2.30;;;16.60;99.90;;;;;;5005364;28;20510;-68
2023/10/15 10:09:37;;;;;;;3.28;2.97;;;17.20;99.90;;;;;;5007425;28;20215;-67
2023/10/15 10:12:41;;;;;;;6.70;2.17;;;20.00;99.90;;;;;;5009880;28;20231;-68
2023/10/15 10:15:10;;;;;;;2.05;1.85;;;22.50;99.90;;;;;;4991539;28;20286;-64
2023/10/15 10:17:38;;;;;;;2.60;1.58;;;23.60;99.90;;;;;;5005216;28;20197;-66
2023/10/15 10:20:12;;;;;;;2.00;1.90;;;23.70;99.90;;;;;;5009117;28;20202;-69
2023/10/15 10:22:41;;;;;;;3.88;2.00;;;22.90;99.90;;;;;;5008247;28;20255;-69
2023/10/15 10:25:30;;;;;;;2.35;2.05;;;22.40;99.90;;;;;;5016479;28;20578;-68
2023/10/15 10:28:20;;;;;;;2.00;1.83;;;20.40;99.90;;;;;;5006651;28;20200;-69
2023/10/15 10:30:54;;;;;;;2.20;1.60;;;18.60;99.90;;;;;;5006893;28;20317;-68
2023/10/15 10:33:44;;;;;;;2.90;1.70;;;17.90;99.90;;;;;;5008052;28;20644;-68
2023/10/15 10:36:13;;;;;;;3.80;2.83;;;17.10;99.90;;;;;;5006327;28;20758;-67
2023/10/15 10:38:41;;;;;;;1.90;1.80;;;16.60;99.90;;;;;;4989527;28;20200;-68
2023/10/15 10:41:14;;;;;;;1.88;1.77;;;16.00;99.90;;;;;;5012409;28;20549;-67
2023/10/15 10:43:53;;;;;;;2.97;1.92;;;15.70;99.90;;;;;;5002535;28;20205;-66
2023/10/15 10:46:43;;;;;;;4.63;1.83;;;15.50;99.90;;;;;;5004580;28;20228;-68
2023/10/15 10:49:16;;;;;;;1.90;1.50;;;15.50;99.90;;;;;;4995150;28;20311;-67
2023/10/15 10:52:02;;;;;;;4.45;2.50;;;15.80;99.90;;;;;;5006565;28;20702;-68
2023/10/15 10:54:30;;;;;;;2.50;1.83;;;17.80;99.90;;;;;;4991489;28;20744;-69
2023/10/15 10:57:01;;;;;;;3.10;2.13;;;18.00;99.90;;;;;;4975186;28;20336;-67
2023/10/15 10:59:30;;;;;;;3.20;1.80;;;20.40;99.90;;;;;;5009030;28;20190;-71
2023/10/15 11:01:59;;;;;;;1.70;1.60;;;20.90;99.90;;;;;;4988424;28;20239;-66
2023/10/15 11:04:26;;;;;;;2.53;2.05;;;23.10;99.90;;;;;;4973361;28;20192;-70
2023/10/15 11:06:56;;;;;;;4.22;1.92;;;24.40;99.90;;;;;;4989283;28;20204;-68
2023/10/15 11:09:23;;;;;;;1.90;1.80;;;24.40;99.90;;;;;;4998452;28;20201;-65
2023/10/15 11:11:52;;;;;;;2.10;2.00;;;23.20;99.90;;;;;;5003990;28;20205;-71
2023/10/15 11:14:23;;;;;;;2.10;1.90;;;23.90;99.90;;;;;;4995945;28;20200;-71
2023/10/15 11:16:52;;;;;;;3.00;2.70;;;21.40;99.90;;;;;;4996325;28;20349;-65
2023/10/15 11:19:21;;;;;;;2.85;1.52;;;19.60;99.90;;;;;;4977030;28;20218;-65
2023/10/15 11:21:49;;;;;;;2.35;1.90;;;18.00;99.90;;;;;;4982517;28;20208;-65
2023/10/15 11:24:17;;;;;;;3.42;1.98;;;18.40;99.90;;;;;;4981652;28;20621;-65
2023/10/15 11:26:48;;;;;;;1.80;1.50;;;18.60;99.90;;;;;;4984924;28;20229;-64
2023/10/15 11:29:20;;;;;;;1.95;1.83;;;19.90;99.90;;;;;;5001160;28;20198;-65
2023/10/15 11:31:58;;;;;;;1.92;1.80;;;19.20;99.90;;;;;;4984507;28;20210;-65
2023/10/15 11:34:28;;;;;;;1.70;1.60;;;17.70;99.90;;;;;;4980074;28;20645;-66
2023/10/15 11:36:56;;;;;;;1.80;1.58;;;18.90;99.90;;;;;;4985508;28;20672;-68
2023/10/15 11:39:29;;;;;;;1.80;1.63;;;20.40;99.90;;;;;;4999222;28;20272;-67
2023/10/15 11:41:57;;;;;;;1.70;1.60;;;21.20;99.90;;;;;;4984396;28;20201;-67
2023/10/15 11:44:30;;;;;;;2.05;1.80;;;21.90;99.90;;;;;;4980851;28;20211;-69
2023/10/15 11:47:08;;;;;;;1.83;1.70;;;22.70;99.90;;;;;;4995638;28;20200;-67
2023/10/15 11:49:42;;;;;;;1.90;1.73;;;22.60;99.90;;;;;;4983437;28;20260;-67
2023/10/15 11:52:22;;;;;;;2.70;2.50;;;22.50;99.90;;;;;;4983614;28;21003;-69
2023/10/15 11:54:49;;;;;;;3.58;2.60;;;21.20;99.90;;;;;;4981367;28;20202;-74
2023/10/15 11:57:26;;;;;;;2.28;2.10;;;20.30;99.90;;;;;;4982017;28;20224;-68
2023/10/15 11:59:54;;;;;;;3.40;3.10;;;20.40;99.90;;;;;;5002000;28;20213;-71
2023/10/15 12:02:25;;;;;;;4.13;3.20;;;20.50;99.90;;;;;;4981365;28;20197;-72
2023/10/15 12:04:56;;;;;;;4.05;3.30;;;20.20;99.90;;;;;;4985010;28;20659;-74
2023/10/15 12:07:24;;;;;;;4.68;2.55;;;20.50;99.90;;;;;;4978819;28;20198;-67
2023/10/15 12:09:51;;;;;;;5.28;2.90;;;20.50;99.90;;;;;;4979500;28;20209;-68
2023/10/15 12:12:19;;;;;;;2.25;2.05;;;18.90;99.90;;;;;;4986047;28;20190;-67
2023/10/15 12:14:47;;;;;;;3.13;2.83;;;18.40;99.90;;;;;;4974719;28;20302;-67
2023/10/15 12:17:15;;;;;;;1.77;1.67;;;18.20;99.90;;;;;;5001239;28;20237;-68
2023/10/15 12:19:44;;;;;;;6.85;2.63;;;18.50;99.90;;;;;;4984628;28;20196;-68
2023/10/15 12:22:14;;;;;;;4.13;2.40;;;18.80;99.90;;;;;;4981910;28;20225;-68
2023/10/15 12:24:42;;;;;;;2.75;2.55;;;19.90;99.90;;;;;;4981113;28;20194;-68
2023/10/15 12:27:10;;;;;;;2.63;1.98;;;19.60;99.90;;;;;;4983114;28;20713;-67
2023/10/15 12:29:38;;;;;;;2.80;2.03;;;19.80;99.90;;;;;;4982746;28;20193;-67
2023/10/15 12:32:10;;;;;;;1.90;1.80;;;20.00;99.90;;;;;;4986721;28;20669;-68
2023/10/15 12:34:37;;;;;;;5.65;3.08;;;20.00;99.90;;;;;;4989571;28;20201;-67
2023/10/15 12:37:12;;;;;;;2.97;2.28;;;19.50;99.90;;;;;;4991684;28;20287;-70
2023/10/15 12:39:40;;;;;;;3.28;2.10;;;19.20;99.90;;;;;;5005626;28;20204;-72
2023/10/15 12:42:10;;;;;;;19.13;6.03;;;19.50;99.90;;;;;;5003831;28;20203;-66
2023/10/15 12:44:40;;;;;;;15.10;6.20;;;19.60;99.90;;;;;;4987180;28;20683;-67
2023/10/15 12:47:08;;;;;;;21.25;8.25;;;19.00;99.90;;;;;;4992123;28;20699;-66
2023/10/15 12:49:37;;;;;;;16.15;5.90;;;18.10;99.90;;;;;;4986378;28;20208;-67
2023/10/15 12:52:04;;;;;;;11.23;5.78;;;17.70;99.90;;;;;;4988460;28;20202;-67
2023/10/15 12:54:33;;;;;;;48.45;19.25;;;17.30;99.90;;;;;;4976170;28;20220;-65
2023/10/15 12:57:00;;;;;;;35.55;15.82;;;17.00;99.90;;;;;;4995369;28;20213;-66
2023/10/15 12:59:28;;;;;;;35.15;14.75;;;17.30;99.90;;;;;;5007681;28;20208;-65
2023/10/15 13:01:56;;;;;;;35.35;14.95;;;17.80;99.90;;;;;;4995491;28;20652;-64
2023/10/15 13:04:24;;;;;;;33.13;15.02;;;17.60;99.90;;;;;;4986821;28;20206;-65
2023/10/15 13:06:51;;;;;;;46.05;18.45;;;17.70;99.90;;;;;;4992497;28;20238;-65
2023/10/15 13:09:25;;;;;;;5.88;2.92;;;17.60;99.90;;;;;;4978117;28;20555;-67
2023/10/15 13:11:53;;;;;;;7.25;4.10;;;17.20;99.90;;;;;;4990344;28;20202;-64
2023/10/15 13:14:20;;;;;;;24.75;11.15;;;16.80;99.90;;;;;;4993417;28;20246;-67
2023/10/15 13:16:51;;;;;;;40.28;16.45;;;16.60;99.90;;;;;;4977456;28;20241;-67
2023/10/15 13:19:19;;;;;;;23.20;10.65;;;16.60;99.90;;;;;;4965687;28;20205;-65
2023/10/15 13:21:46;;;;;;;28.40;13.55;;;16.50;99.90;;;;;;4968506;28;20225;-67
2023/10/15 13:24:16;;;;;;;26.23;13.50;;;16.90;99.90;;;;;;4967490;28;20202;-64